createdAt,value
2018-06-21T00:00:45.423Z,15.2
2018-06-21T00:01:45.352Z,15.2
2018-06-21T00:09:17.686Z,15.2
2018-06-21T00:09:26.216Z,15.2
2018-06-21T00:10:26.608Z,15.0
2018-06-21T00:11:26.100Z,15.0
2018-06-21T00:12:26.675Z,15.0
2018-06-21T00:13:26.229Z,15.0
2018-06-21T00:14:26.297Z,15.0
2018-06-21T00:15:26.596Z,15.0
2018-06-21T00:16:26.750Z,15.0
2018-06-21T00:17:26.032Z,15.0
2018-06-21T00:18:25.974Z,15.0
2018-06-21T00:19:26.147Z,15.0
2018-06-21T00:20:26.131Z,15.0
2018-06-21T00:21:26.488Z,15.3
2018-06-21T00:22:26.417Z,15.3
2018-06-21T00:23:26.202Z,15.3
2018-06-21T00:24:26.454Z,15.4
2018-06-21T00:25:26.467Z,15.4
2018-06-21T00:26:26.436Z,15.4
2018-06-21T00:27:26.424Z,15.4
2018-06-21T00:28:26.454Z,15.4
2018-06-21T00:29:26.036Z,15.2
2018-06-21T00:30:26.653Z,15.2
2018-06-21T00:31:26.387Z,15.0
2018-06-21T00:32:26.040Z,15.0
2018-06-21T00:33:26.483Z,15.0
2018-06-21T00:34:26.004Z,14.6
2018-06-21T00:35:26.202Z,14.6
2018-06-21T00:36:26.199Z,14.4
2018-06-21T00:37:26.151Z,14.4
2018-06-21T00:38:26.457Z,14.4
2018-06-21T00:39:26.423Z,14.4
2018-06-21T00:40:26.420Z,14.4
2018-06-21T00:41:26.145Z,14.4
2018-06-21T00:42:26.079Z,14.4
2018-06-21T00:43:26.470Z,14.4
2018-06-21T00:44:26.196Z,14.4
2018-06-21T00:47:07.712Z,14.4
2018-06-21T00:47:16.512Z,14.4
2018-06-21T00:48:16.528Z,14.7
2018-06-21T00:49:16.096Z,15.0
2018-06-21T00:50:16.158Z,15.0
2018-06-21T00:51:15.942Z,15.0
2018-06-21T00:52:16.474Z,15.1
2018-06-21T00:53:16.141Z,15.1
2018-06-21T00:54:16.443Z,15.2
2018-06-21T00:55:15.977Z,15.2
2018-06-21T00:57:28.758Z,15.2
2018-06-21T00:58:28.970Z,15.2
2018-06-21T00:59:29.346Z,15.1
2018-06-21T01:00:29.320Z,15.1
2018-06-21T01:01:28.978Z,15.1
2018-06-21T01:02:29.311Z,15.0
2018-06-21T01:03:29.276Z,15.0
2018-06-21T01:04:28.860Z,14.8
2018-06-21T01:05:29.341Z,14.8
2018-06-21T01:06:29.481Z,14.8
2018-06-21T01:07:28.978Z,14.8
2018-06-21T01:08:29.546Z,14.8
2018-06-21T01:09:28.862Z,14.6
2018-06-21T01:10:29.421Z,14.6
2018-06-21T01:11:29.258Z,14.6
2018-06-21T01:12:29.832Z,14.5
2018-06-21T01:13:28.862Z,14.5
2018-06-21T01:14:29.139Z,14.4
2018-06-21T01:15:29.354Z,14.4
2018-06-21T01:16:29.050Z,14.4
2018-06-21T01:17:28.905Z,14.2
2018-06-21T01:18:29.319Z,14.2
2018-06-21T01:19:29.003Z,14.2
2018-06-21T01:20:29.075Z,14.2
2018-06-21T01:21:28.814Z,14.2
2018-06-21T01:22:29.053Z,14.1
2018-06-21T01:23:28.897Z,14.1
2018-06-21T01:24:31.411Z,14.4
2018-06-21T01:25:29.459Z,14.4
2018-06-21T01:26:29.022Z,14.4
2018-06-21T01:27:29.730Z,14.5
2018-06-21T01:28:29.291Z,14.5
2018-06-21T01:29:28.949Z,14.5
2018-06-21T01:30:29.329Z,14.4
2018-06-21T01:31:28.988Z,14.4
2018-06-21T01:32:29.381Z,14.4
2018-06-21T01:33:29.102Z,14.4
2018-06-21T01:34:31.118Z,14.4
2018-06-21T01:35:28.875Z,14.3
2018-06-21T01:36:29.498Z,14.3
2018-06-21T01:37:29.139Z,14.3
2018-06-21T01:38:29.704Z,14.3
2018-06-21T01:39:29.116Z,14.3
2018-06-21T01:40:29.057Z,14.1
2018-06-21T01:41:29.415Z,14.1
2018-06-21T01:42:29.276Z,14.0
2018-06-21T01:43:28.915Z,14.0
2018-06-21T01:44:29.359Z,14.0
2018-06-21T01:45:29.110Z,14.1
2018-06-21T01:46:30.258Z,14.1
2018-06-21T01:47:28.894Z,14.1
2018-06-21T01:48:29.318Z,14.1
2018-06-21T01:49:29.274Z,14.1
2018-06-21T01:50:29.109Z,14.4
2018-06-21T01:51:29.410Z,14.4
2018-06-21T01:52:30.096Z,14.5
2018-06-21T01:53:29.115Z,14.5
2018-06-21T01:54:29.318Z,14.5
2018-06-21T01:55:29.952Z,14.5
2018-06-21T01:56:28.960Z,14.5
2018-06-21T01:57:28.969Z,14.5
2018-06-21T01:58:28.931Z,14.5
2018-06-21T01:59:29.429Z,14.5
2018-06-21T02:00:29.126Z,14.4
2018-06-21T02:01:29.383Z,14.4
2018-06-21T02:02:39.506Z,14.4
2018-06-21T02:03:29.157Z,14.3
2018-06-21T02:04:29.472Z,14.3
2018-06-21T02:05:29.497Z,14.2
2018-06-21T02:06:29.440Z,14.2
2018-06-21T02:07:29.184Z,14.2
2018-06-21T02:08:28.997Z,14.1
2018-06-21T02:09:29.151Z,14.1
2018-06-21T02:10:28.953Z,14.0
2018-06-21T02:11:28.940Z,14.0
2018-06-21T02:12:31.354Z,14.0
2018-06-21T02:13:29.397Z,13.9
2018-06-21T02:14:29.006Z,13.9
2018-06-21T02:15:29.419Z,13.8
2018-06-21T02:16:28.931Z,13.8
2018-06-21T02:17:29.120Z,13.8
2018-06-21T02:18:30.033Z,14.0
2018-06-21T02:19:28.967Z,14.0
2018-06-21T02:20:29.363Z,14.2
2018-06-21T02:21:28.958Z,14.2
2018-06-21T02:23:29.636Z,14.4
2018-06-21T02:24:30.258Z,14.4
2018-06-21T02:25:34.638Z,14.4
2018-06-21T02:26:29.487Z,14.4
2018-06-21T02:27:29.069Z,14.4
2018-06-21T02:28:29.113Z,14.4
2018-06-21T02:29:29.440Z,14.4
2018-06-21T02:30:29.029Z,14.4
2018-06-21T02:31:29.265Z,14.4
2018-06-21T02:32:29.593Z,14.4
2018-06-21T02:33:29.467Z,14.4
2018-06-21T02:34:29.197Z,14.4
2018-06-21T02:35:29.197Z,14.4
2018-06-21T02:36:29.527Z,14.3
2018-06-21T02:37:47.075Z,14.3
2018-06-21T02:38:29.273Z,14.2
2018-06-21T02:39:29.240Z,14.2
2018-06-21T02:40:29.177Z,14.2
2018-06-21T02:41:29.137Z,14.0
2018-06-21T02:42:29.509Z,14.0
2018-06-21T02:43:30.207Z,13.9
2018-06-21T02:44:29.475Z,13.9
2018-06-21T02:45:29.979Z,13.9
2018-06-21T02:46:29.450Z,13.8
2018-06-21T02:47:29.005Z,13.8
2018-06-21T02:48:29.235Z,13.6
2018-06-21T02:49:29.324Z,13.6
2018-06-21T02:50:30.610Z,13.6
2018-06-21T02:51:29.203Z,13.6
2018-06-21T02:52:29.162Z,13.6
2018-06-21T02:53:29.549Z,13.6
2018-06-21T02:54:29.459Z,13.6
2018-06-21T02:55:28.995Z,13.6
2018-06-21T02:56:29.934Z,13.6
2018-06-21T02:57:29.605Z,13.6
2018-06-21T02:58:29.512Z,13.6
2018-06-21T02:59:29.282Z,13.9
2018-06-21T03:00:29.505Z,13.9
2018-06-21T03:01:29.588Z,13.9
2018-06-21T03:02:29.020Z,13.9
2018-06-21T03:03:29.449Z,13.9
2018-06-21T03:04:29.588Z,13.8
2018-06-21T03:05:30.284Z,13.8
2018-06-21T03:06:29.259Z,13.8
2018-06-21T03:07:29.018Z,13.8
2018-06-21T03:08:29.184Z,13.8
2018-06-21T03:10:42.350Z,13.8
2018-06-21T03:11:42.223Z,13.7
2018-06-21T03:12:43.290Z,13.7
2018-06-21T03:13:41.986Z,13.7
2018-06-21T03:14:42.437Z,13.8
2018-06-21T03:15:42.116Z,13.8
2018-06-21T03:16:42.370Z,14.0
2018-06-21T03:17:41.931Z,14.0
2018-06-21T03:18:42.374Z,14.0
2018-06-21T03:19:42.397Z,14.0
2018-06-21T03:20:41.934Z,14.0
2018-06-21T03:21:43.109Z,14.2
2018-06-21T03:22:42.122Z,14.2
2018-06-21T03:23:42.250Z,14.2
2018-06-21T03:24:42.975Z,14.2
2018-06-21T03:25:42.386Z,14.2
2018-06-21T03:26:41.966Z,14.1
2018-06-21T03:27:42.173Z,14.1
2018-06-21T03:28:44.230Z,14.1
2018-06-21T03:29:41.897Z,13.9
2018-06-21T03:30:42.239Z,13.9
2018-06-21T03:31:42.405Z,13.8
2018-06-21T03:32:42.523Z,13.8
2018-06-21T03:33:42.336Z,13.8
2018-06-21T03:34:42.484Z,13.7
2018-06-21T03:35:41.966Z,13.7
2018-06-21T03:36:42.055Z,13.6
2018-06-21T03:37:41.934Z,13.6
2018-06-21T03:38:43.622Z,13.6
2018-06-21T03:39:42.392Z,13.6
2018-06-21T03:40:41.939Z,13.6
2018-06-21T03:41:43.158Z,13.6
2018-06-21T03:42:41.926Z,13.7
2018-06-21T03:43:42.051Z,13.7
2018-06-21T03:44:42.435Z,13.8
2018-06-21T03:45:41.896Z,13.8
2018-06-21T03:46:42.454Z,13.8
2018-06-21T03:47:43.075Z,13.8
2018-06-21T03:48:42.397Z,13.8
2018-06-21T03:49:42.008Z,13.8
2018-06-21T03:50:41.993Z,13.8
2018-06-21T03:51:42.429Z,13.8
2018-06-21T03:52:42.398Z,13.7
2018-06-21T03:53:42.449Z,13.7
2018-06-21T03:54:42.888Z,13.8
2018-06-21T03:55:42.940Z,13.8
2018-06-21T03:56:52.356Z,13.8
2018-06-21T03:57:42.169Z,14.0
2018-06-21T03:58:41.992Z,14.0
2018-06-21T03:59:42.138Z,14.0
2018-06-21T04:00:42.371Z,14.0
2018-06-21T04:01:42.482Z,14.0
2018-06-21T04:02:42.398Z,13.9
2018-06-21T04:03:42.023Z,13.9
2018-06-21T04:04:42.117Z,13.9
2018-06-21T04:05:42.521Z,13.9
2018-06-21T04:06:45.008Z,13.9
2018-06-21T04:07:42.483Z,14.0
2018-06-21T04:08:42.898Z,14.0
2018-06-21T04:09:43.140Z,14.2
2018-06-21T04:10:42.194Z,14.2
2018-06-21T04:11:43.153Z,14.2
2018-06-21T04:12:42.277Z,14.4
2018-06-21T04:13:42.466Z,14.4
2018-06-21T04:14:41.999Z,14.4
2018-06-21T04:15:42.208Z,14.4
2018-06-21T04:16:42.457Z,14.4
2018-06-21T04:17:42.476Z,14.5
2018-06-21T04:18:42.210Z,14.5
2018-06-21T04:19:42.512Z,14.5
2018-06-21T04:20:42.232Z,14.6
2018-06-21T04:21:42.212Z,14.6
2018-06-21T04:22:42.194Z,14.7
2018-06-21T04:23:42.113Z,14.7
2018-06-21T04:24:42.010Z,14.7
2018-06-21T04:25:42.527Z,14.8
2018-06-21T04:26:44.564Z,14.8
2018-06-21T04:27:42.028Z,14.8
2018-06-21T04:28:42.275Z,14.8
2018-06-21T04:29:42.067Z,14.8
2018-06-21T04:30:42.564Z,14.8
2018-06-21T04:31:43.494Z,14.8
2018-06-21T04:32:42.133Z,14.9
2018-06-21T04:33:42.093Z,14.9
2018-06-21T04:34:42.090Z,14.9
2018-06-21T04:35:42.039Z,15.0
2018-06-21T04:36:42.555Z,15.0
2018-06-21T04:37:43.203Z,15.2
2018-06-21T04:38:42.595Z,15.2
2018-06-21T04:39:43.129Z,15.2
2018-06-21T04:40:42.611Z,15.2
2018-06-21T04:41:42.607Z,15.2
2018-06-21T04:42:43.168Z,15.2
2018-06-21T04:43:42.332Z,15.4
2018-06-21T04:44:42.105Z,15.4
2018-06-21T04:45:43.396Z,15.6
2018-06-21T04:46:42.780Z,15.6
2018-06-21T04:47:42.542Z,15.6
2018-06-21T04:48:42.716Z,15.8
2018-06-21T04:49:42.524Z,15.8
2018-06-21T04:50:42.355Z,16.0
2018-06-21T04:51:47.267Z,16.0
2018-06-21T04:52:50.105Z,16.0
2018-06-21T04:53:44.872Z,16.0
2018-06-21T04:54:44.952Z,16.0
2018-06-21T04:55:50.564Z,16.0
2018-06-21T04:56:45.088Z,16.0
2018-06-21T04:57:49.643Z,16.0
2018-06-21T04:58:46.821Z,16.0
2018-06-21T04:59:44.666Z,16.0
2018-06-21T05:00:43.613Z,16.1
2018-06-21T05:01:44.505Z,16.1
2018-06-21T05:02:44.046Z,16.1
2018-06-21T05:04:45.259Z,16.4
2018-06-21T05:05:42.568Z,16.8
2018-06-21T05:06:58.599Z,16.8
2018-06-21T05:07:43.085Z,16.8
2018-06-21T05:08:43.535Z,17.4
2018-06-21T05:09:43.478Z,17.4
2018-06-21T05:10:43.272Z,17.4
2018-06-21T05:11:43.442Z,17.4
2018-06-21T05:12:44.477Z,17.4
2018-06-21T05:13:44.246Z,18.2
2018-06-21T05:14:45.101Z,18.2
2018-06-21T05:15:43.046Z,18.2
2018-06-21T05:16:42.671Z,18.7
2018-06-21T05:17:43.690Z,18.7
2018-06-21T05:19:48.000Z,18.8
2018-06-21T05:20:48.440Z,18.8
2018-06-21T05:21:48.940Z,19.2
2018-06-21T05:22:42.901Z,19.2
2018-06-21T05:23:46.115Z,19.5
2018-06-21T05:24:49.937Z,19.5
2018-06-21T05:25:44.426Z,19.5
2018-06-21T05:26:49.824Z,19.7
2018-06-21T05:27:43.181Z,19.7
2018-06-21T05:28:42.836Z,20.0
2018-06-21T05:29:42.323Z,20.0
2018-06-21T05:30:42.810Z,20.0
2018-06-21T05:31:42.359Z,19.9
2018-06-21T05:32:42.356Z,19.9
2018-06-21T05:33:42.770Z,20.1
2018-06-21T05:34:43.746Z,20.1
2018-06-21T05:35:42.632Z,20.1
2018-06-21T05:36:43.326Z,20.7
2018-06-21T05:37:43.608Z,20.7
2018-06-21T05:38:42.808Z,21.2
2018-06-21T05:39:42.963Z,21.2
2018-06-21T05:40:42.580Z,21.2
2018-06-21T05:41:43.850Z,21.4
2018-06-21T05:42:43.990Z,21.4
2018-06-21T05:43:50.592Z,21.4
2018-06-21T05:45:51.096Z,21.8
2018-06-21T05:45:59.652Z,21.8
2018-06-21T05:46:59.305Z,22.4
2018-06-21T05:47:59.294Z,22.4
2018-06-21T05:48:59.700Z,22.8
2018-06-21T05:49:59.490Z,22.8
2018-06-21T05:50:59.806Z,22.8
2018-06-21T05:51:59.848Z,22.8
2018-06-21T05:52:59.717Z,22.8
2018-06-21T05:53:59.787Z,23.0
2018-06-21T05:54:59.748Z,23.0
2018-06-21T05:55:59.771Z,23.0
2018-06-21T05:56:59.496Z,23.4
2018-06-21T05:57:59.733Z,23.4
2018-06-21T05:58:59.477Z,23.3
2018-06-21T05:59:59.493Z,23.3
2018-06-21T06:00:59.858Z,23.3
2018-06-21T06:02:00.545Z,23.5
2018-06-21T06:02:59.310Z,23.5
2018-06-21T06:03:59.809Z,23.5
2018-06-21T06:04:59.393Z,23.6
2018-06-21T06:05:59.480Z,23.6
2018-06-21T06:06:59.590Z,24.0
2018-06-21T06:07:59.719Z,24.0
2018-06-21T06:08:59.307Z,24.0
2018-06-21T06:10:00.376Z,24.0
2018-06-21T06:10:59.825Z,24.0
2018-06-21T06:11:59.738Z,24.1
2018-06-21T06:12:59.779Z,24.1
2018-06-21T06:14:00.591Z,24.1
2018-06-21T06:14:59.374Z,24.4
2018-06-21T06:15:59.779Z,24.4
2018-06-21T06:16:59.839Z,24.5
2018-06-21T06:17:59.895Z,24.5
2018-06-21T06:18:59.360Z,24.5
2018-06-21T06:19:59.815Z,24.5
2018-06-21T06:20:59.520Z,24.5
2018-06-21T06:21:59.358Z,24.2
2018-06-21T06:22:59.412Z,24.2
2018-06-21T06:24:01.982Z,24.2
2018-06-21T06:24:59.378Z,23.5
2018-06-21T06:25:59.580Z,23.5
2018-06-21T06:26:59.341Z,23.7
2018-06-21T06:27:59.542Z,23.7
2018-06-21T06:28:59.821Z,23.7
2018-06-21T06:29:59.323Z,23.5
2018-06-21T06:30:59.891Z,23.5
2018-06-21T06:31:59.875Z,23.5
2018-06-21T06:32:59.820Z,23.5
2018-06-21T06:34:00.299Z,23.5
2018-06-21T06:34:59.591Z,23.5
2018-06-21T06:35:59.515Z,23.5
2018-06-21T06:37:00.160Z,23.5
2018-06-21T06:37:59.372Z,23.4
2018-06-21T06:38:59.367Z,23.4
2018-06-21T06:39:59.384Z,23.0
2018-06-21T06:40:59.375Z,23.0
2018-06-21T06:42:00.189Z,23.0
2018-06-21T06:43:00.346Z,23.2
2018-06-21T06:43:59.818Z,23.2
2018-06-21T06:44:59.396Z,23.2
2018-06-21T06:45:59.763Z,23.2
2018-06-21T06:47:00.464Z,23.2
2018-06-21T06:47:59.974Z,23.2
2018-06-21T06:49:00.794Z,23.2
2018-06-21T06:49:59.360Z,23.2
2018-06-21T06:50:59.626Z,23.2
2018-06-21T06:51:59.698Z,23.2
2018-06-21T06:52:59.605Z,23.4
2018-06-21T06:54:00.151Z,23.4
2018-06-21T06:54:59.717Z,23.8
2018-06-21T06:55:59.609Z,23.8
2018-06-21T06:56:59.889Z,23.8
2018-06-21T06:57:59.467Z,24.0
2018-06-21T06:58:59.916Z,24.0
2018-06-21T07:00:00.564Z,24.1
2018-06-21T07:00:59.387Z,24.1
2018-06-21T07:02:00.015Z,24.1
2018-06-21T07:02:59.894Z,24.0
2018-06-21T07:04:00.374Z,24.0
2018-06-21T07:04:59.904Z,24.0
2018-06-21T07:05:59.644Z,24.4
2018-06-21T07:06:59.515Z,24.4
2018-06-21T07:07:59.974Z,24.6
2018-06-21T07:08:59.603Z,24.6
2018-06-21T07:09:59.713Z,24.6
2018-06-21T07:11:00.480Z,24.5
2018-06-21T07:11:59.610Z,24.5
2018-06-21T07:12:59.902Z,24.5
2018-06-21T07:17:18.732Z,24.5
2018-06-21T07:17:26.908Z,24.5
2018-06-21T07:19:27.905Z,23.7
2018-06-21T07:20:27.167Z,23.6
2018-06-21T07:21:27.356Z,23.6
2018-06-21T07:22:27.153Z,23.6
2018-06-21T07:23:27.384Z,23.5
2018-06-21T07:24:27.347Z,23.5
2018-06-21T07:25:27.244Z,23.4
2018-06-21T07:26:27.238Z,23.4
2018-06-21T07:27:26.987Z,23.4
2018-06-21T07:28:27.948Z,23.7
2018-06-21T07:29:27.469Z,23.7
2018-06-21T07:30:27.327Z,23.7
2018-06-21T07:31:27.448Z,23.7
2018-06-21T07:32:27.456Z,23.7
2018-06-21T07:33:27.231Z,23.7
2018-06-21T07:34:27.788Z,23.7
2018-06-21T07:35:28.428Z,23.7
2018-06-21T07:36:27.097Z,23.9
2018-06-21T07:37:27.035Z,23.9
2018-06-21T07:38:27.153Z,23.9
2018-06-21T07:39:27.800Z,23.9
2018-06-21T07:40:26.967Z,23.9
2018-06-21T07:41:26.969Z,23.7
2018-06-21T07:42:27.441Z,23.7
2018-06-21T07:43:27.203Z,24.3
2018-06-21T07:44:27.027Z,24.3
2018-06-21T07:45:27.436Z,24.3
2018-06-21T07:46:27.141Z,24.6
2018-06-21T07:47:27.033Z,24.6
2018-06-21T07:48:27.192Z,24.8
2018-06-21T07:49:27.119Z,24.8
2018-06-21T07:50:27.180Z,24.8
2018-06-21T07:51:27.395Z,24.9
2018-06-21T07:52:27.387Z,24.9
2018-06-21T07:53:37.204Z,24.9
2018-06-21T07:54:27.412Z,24.9
2018-06-21T07:55:27.451Z,24.9
2018-06-21T07:56:27.548Z,25.6
2018-06-21T07:57:28.084Z,25.6
2018-06-21T07:58:27.571Z,25.0
2018-06-21T07:59:27.004Z,25.0
2018-06-21T08:00:27.441Z,25.0
2018-06-21T08:01:26.979Z,25.1
2018-06-21T08:02:27.533Z,25.1
2018-06-21T08:03:37.534Z,25.1
2018-06-21T08:04:27.552Z,24.8
2018-06-21T08:05:27.416Z,24.8
2018-06-21T08:06:27.412Z,24.8
2018-06-21T08:07:27.019Z,24.8
2018-06-21T08:08:27.533Z,24.8
2018-06-21T08:09:27.477Z,24.9
2018-06-21T08:10:27.134Z,24.9
2018-06-21T08:11:27.511Z,25.6
2018-06-21T08:12:28.084Z,25.6
2018-06-21T08:14:27.477Z,25.4
2018-06-21T08:15:27.501Z,25.4
2018-06-21T08:16:27.252Z,25.6
2018-06-21T08:17:27.172Z,25.6
2018-06-21T08:18:27.090Z,25.6
2018-06-21T08:19:27.250Z,25.1
2018-06-21T08:20:27.089Z,25.1
2018-06-21T08:21:27.057Z,25.3
2018-06-21T08:22:27.473Z,25.3
2018-06-21T08:23:27.644Z,25.3
2018-06-21T08:24:27.284Z,25.4
2018-06-21T08:25:27.212Z,25.4
2018-06-21T08:26:27.476Z,25.3
2018-06-21T08:27:27.524Z,25.3
2018-06-21T08:28:27.650Z,25.3
2018-06-21T08:29:27.630Z,25.4
2018-06-21T08:30:27.164Z,25.4
2018-06-21T08:31:27.037Z,25.4
2018-06-21T08:32:27.329Z,25.5
2018-06-21T08:33:27.319Z,25.5
2018-06-21T08:34:27.279Z,25.5
2018-06-21T08:35:28.171Z,25.5
2018-06-21T08:36:27.148Z,25.5
2018-06-21T08:37:27.086Z,25.6
2018-06-21T08:38:27.245Z,25.6
2018-06-21T08:39:27.577Z,25.4
2018-06-21T08:40:27.507Z,25.4
2018-06-21T08:41:27.518Z,25.4
2018-06-21T08:42:27.077Z,25.3
2018-06-21T08:43:27.763Z,25.3
2018-06-21T08:44:27.572Z,25.3
2018-06-21T08:45:27.144Z,25.3
2018-06-21T08:46:27.557Z,25.3
2018-06-21T08:47:27.735Z,25.9
2018-06-21T08:48:27.206Z,25.9
2018-06-21T08:49:27.617Z,26.4
2018-06-21T08:50:28.216Z,26.4
2018-06-21T08:51:27.981Z,26.4
2018-06-21T08:52:28.073Z,26.5
2018-06-21T08:53:27.698Z,26.5
2018-06-21T08:54:27.552Z,25.8
2018-06-21T08:55:27.504Z,25.8
2018-06-21T08:56:27.510Z,25.8
2018-06-21T08:57:27.145Z,25.5
2018-06-21T08:58:27.342Z,25.5
2018-06-21T08:59:27.612Z,24.7
2018-06-21T09:00:28.111Z,24.7
2018-06-21T09:01:28.568Z,24.7
2018-06-21T09:02:27.378Z,24.2
2018-06-21T09:03:27.170Z,24.2
2018-06-21T09:04:28.196Z,24.2
2018-06-21T09:05:27.336Z,24.6
2018-06-21T09:06:27.605Z,24.6
2018-06-21T09:07:27.333Z,25.2
2018-06-21T09:08:27.580Z,25.2
2018-06-21T09:09:27.325Z,25.2
2018-06-21T09:10:28.172Z,25.6
2018-06-21T09:11:27.218Z,25.6
2018-06-21T09:12:28.273Z,25.7
2018-06-21T09:13:27.225Z,25.7
2018-06-21T09:14:27.238Z,25.7
2018-06-21T09:15:27.852Z,25.7
2018-06-21T09:16:27.556Z,25.7
2018-06-21T09:17:27.613Z,25.8
2018-06-21T09:18:27.567Z,25.8
2018-06-21T09:19:27.168Z,25.8
2018-06-21T09:30:32.179Z,25.7
2018-06-21T09:31:31.629Z,25.6
2018-06-21T09:32:31.642Z,25.7
2018-06-21T09:33:32.239Z,25.7
2018-06-21T09:34:32.146Z,25.7
2018-06-21T09:35:32.116Z,26.2
2018-06-21T09:36:31.667Z,26.2
2018-06-21T09:37:31.811Z,26.2
2018-06-21T09:38:31.811Z,25.6
2018-06-21T09:39:32.079Z,25.6
2018-06-21T09:40:32.018Z,25.2
2018-06-21T09:41:31.638Z,25.2
2018-06-21T09:42:32.110Z,25.2
2018-06-21T09:43:31.663Z,24.6
2018-06-21T09:44:32.699Z,24.6
2018-06-21T09:45:31.651Z,24.3
2018-06-21T09:46:33.875Z,24.3
2018-06-21T09:47:31.655Z,24.3
2018-06-21T09:48:31.813Z,24.6
2018-06-21T09:49:31.954Z,24.6
2018-06-21T09:50:31.806Z,24.6
2018-06-21T09:51:32.658Z,24.6
2018-06-21T09:52:32.885Z,24.6
2018-06-21T09:53:31.874Z,25.1
2018-06-21T09:54:31.621Z,25.1
2018-06-21T09:55:31.692Z,25.1
2018-06-21T09:56:31.796Z,25.1
2018-06-21T09:57:32.033Z,25.1
2018-06-21T09:58:32.164Z,24.5
2018-06-21T09:59:32.215Z,24.5
2018-06-21T10:00:32.097Z,24.1
2018-06-21T10:01:32.120Z,24.1
2018-06-21T10:02:31.765Z,24.1
2018-06-21T10:03:32.164Z,24.2
2018-06-21T10:04:31.942Z,24.2
2018-06-21T10:05:31.839Z,24.2
2018-06-21T10:06:32.146Z,24.0
2018-06-21T10:07:32.173Z,24.0
2018-06-21T10:08:32.212Z,24.0
2018-06-21T10:09:32.244Z,24.0
2018-06-21T10:10:31.776Z,24.0
2018-06-21T10:11:32.666Z,24.2
2018-06-21T10:12:31.727Z,24.2
2018-06-21T10:13:31.713Z,24.4
2018-06-21T10:14:31.953Z,24.4
2018-06-21T10:15:31.776Z,24.4
2018-06-21T10:16:31.943Z,24.2
2018-06-21T10:17:32.242Z,24.2
2018-06-21T10:18:31.785Z,24.3
2018-06-21T10:19:32.744Z,24.3
2018-06-21T10:20:32.036Z,24.3
2018-06-21T10:21:32.188Z,24.1
2018-06-21T10:22:32.239Z,24.1
2018-06-21T10:23:31.778Z,24.2
2018-06-21T10:24:32.269Z,24.2
2018-06-21T10:25:32.151Z,24.2
2018-06-21T10:26:32.205Z,23.9
2018-06-21T10:27:32.123Z,23.9
2018-06-21T10:28:32.482Z,24.3
2018-06-21T10:29:32.000Z,24.3
2018-06-21T10:30:32.977Z,24.3
2018-06-21T10:31:32.187Z,24.5
2018-06-21T10:32:32.515Z,24.5
2018-06-21T10:33:32.195Z,24.8
2018-06-21T10:34:31.974Z,24.8
2018-06-21T10:36:24.060Z,24.8
2018-06-21T10:36:32.217Z,24.8
2018-06-21T10:37:31.792Z,24.8
2018-06-21T10:38:32.236Z,24.8
2018-06-21T10:39:32.224Z,24.2
2018-06-21T10:40:31.987Z,24.2
2018-06-21T10:41:31.862Z,24.2
2018-06-21T10:42:32.187Z,24.2
2018-06-21T10:43:32.560Z,24.2
2018-06-21T10:44:32.315Z,23.8
2018-06-21T10:45:31.894Z,23.8
2018-06-21T10:47:44.973Z,23.7
2018-06-21T10:48:44.989Z,24.0
2018-06-21T10:49:44.941Z,24.0
2018-06-21T10:50:44.947Z,24.0
2018-06-21T10:51:45.026Z,24.0
2018-06-21T10:52:44.943Z,24.0
2018-06-21T10:53:44.591Z,24.0
2018-06-21T10:54:45.538Z,23.8
2018-06-21T10:55:44.708Z,23.8
2018-06-21T10:56:44.684Z,23.8
2018-06-21T10:57:45.574Z,23.8
2018-06-21T10:58:44.908Z,23.8
2018-06-21T10:59:45.698Z,24.0
2018-06-21T11:00:44.696Z,24.0
2018-06-21T11:01:44.686Z,24.1
2018-06-21T11:02:44.518Z,24.1
2018-06-21T11:03:44.728Z,24.1
2018-06-21T11:04:44.659Z,24.2
2018-06-21T11:05:45.038Z,24.2
2018-06-21T11:06:44.573Z,23.6
2018-06-21T11:07:46.766Z,23.6
2018-06-21T11:08:44.799Z,23.6
2018-06-21T11:09:44.891Z,24.3
2018-06-21T11:10:44.524Z,24.3
2018-06-21T11:11:44.718Z,24.4
2018-06-21T11:12:44.899Z,24.4
2018-06-21T11:13:45.613Z,24.4
2018-06-21T11:14:45.410Z,24.0
2018-06-21T11:15:44.738Z,24.0
2018-06-21T11:16:45.628Z,24.0
2018-06-21T11:17:44.978Z,24.0
2018-06-21T11:18:45.064Z,24.0
2018-06-21T11:19:44.756Z,23.8
2018-06-21T11:20:45.466Z,23.8
2018-06-21T11:21:44.538Z,23.8
2018-06-21T11:22:45.564Z,23.8
2018-06-21T11:23:44.548Z,23.8
2018-06-21T11:24:45.036Z,23.8
2018-06-21T11:25:47.249Z,23.8
2018-06-21T11:26:45.206Z,23.8
2018-06-21T11:27:44.730Z,24.0
2018-06-21T11:28:45.135Z,24.0
2018-06-21T11:29:44.562Z,24.0
2018-06-21T11:30:44.991Z,24.0
2018-06-21T11:31:44.521Z,24.0
2018-06-21T11:32:44.996Z,24.4
2018-06-21T11:33:45.616Z,24.4
2018-06-21T11:34:44.935Z,24.4
2018-06-21T11:45:37.851Z,24.4
2018-06-21T11:46:37.916Z,24.2
2018-06-21T11:47:37.537Z,24.0
2018-06-21T11:48:38.614Z,24.0
2018-06-21T11:49:37.592Z,24.0
2018-06-21T11:50:38.581Z,23.9
2018-06-21T11:51:37.826Z,23.9
2018-06-21T11:52:37.829Z,23.9
2018-06-21T11:53:37.840Z,23.9
2018-06-21T11:54:37.984Z,23.9
2018-06-21T11:56:50.600Z,24.0
2018-06-21T11:57:51.053Z,24.0
2018-06-21T11:58:51.834Z,24.0
2018-06-21T11:59:52.332Z,24.0
2018-06-21T12:00:50.836Z,24.4
2018-06-21T12:01:50.769Z,24.4
2018-06-21T12:02:51.079Z,24.5
2018-06-21T12:03:52.377Z,24.5
2018-06-21T12:04:50.619Z,24.5
2018-06-21T12:05:51.812Z,24.5
2018-06-21T12:16:37.504Z,24.5
2018-06-21T12:16:47.424Z,24.5
2018-06-21T12:17:47.176Z,24.6
2018-06-21T12:18:46.801Z,24.6
2018-06-21T12:19:47.369Z,24.6
2018-06-21T12:20:47.041Z,25.1
2018-06-21T12:21:47.285Z,25.1
2018-06-21T12:22:47.278Z,25.1
2018-06-21T12:23:47.238Z,25.3
2018-06-21T12:24:46.977Z,25.3
2018-06-21T12:26:59.783Z,25.2
2018-06-21T12:27:59.378Z,25.0
2018-06-21T12:28:59.576Z,25.0
2018-06-21T12:30:00.082Z,25.0
2018-06-21T12:31:00.264Z,25.2
2018-06-21T12:31:59.580Z,25.2
2018-06-21T12:32:59.813Z,25.2
2018-06-21T12:33:59.500Z,25.2
2018-06-21T12:34:59.296Z,25.2
2018-06-21T12:35:59.805Z,25.0
2018-06-21T12:36:59.953Z,25.0
2018-06-21T12:37:59.837Z,25.0
2018-06-21T12:39:00.082Z,25.0
2018-06-21T12:39:59.427Z,25.0
2018-06-21T12:41:00.018Z,25.0
2018-06-21T12:42:00.518Z,25.0
2018-06-21T12:42:59.878Z,25.0
2018-06-21T12:43:59.581Z,24.6
2018-06-21T12:44:59.363Z,24.6
2018-06-21T12:45:59.350Z,25.2
2018-06-21T12:46:59.880Z,25.2
2018-06-21T12:47:59.844Z,25.2
2018-06-21T12:48:59.685Z,24.7
2018-06-21T12:49:59.868Z,24.7
2018-06-21T12:50:59.390Z,25.0
2018-06-21T12:51:59.908Z,25.0
2018-06-21T12:52:59.837Z,25.0
2018-06-21T12:53:59.485Z,25.2
2018-06-21T12:54:59.766Z,25.2
2018-06-21T12:55:59.355Z,25.2
2018-06-21T12:56:59.840Z,25.2
2018-06-21T12:57:59.465Z,25.2
2018-06-21T12:58:59.491Z,25.5
2018-06-21T12:59:59.373Z,25.5
2018-06-21T13:00:59.361Z,24.6
2018-06-21T13:01:59.804Z,24.6
2018-06-21T13:02:59.905Z,24.6
2018-06-21T13:03:59.657Z,24.6
2018-06-21T13:04:59.715Z,24.6
2018-06-21T13:06:00.078Z,24.6
2018-06-21T13:07:00.397Z,24.5
2018-06-21T13:07:59.947Z,24.5
2018-06-21T13:09:00.328Z,24.2
2018-06-21T13:09:59.907Z,24.2
2018-06-21T13:10:59.934Z,24.2
2018-06-21T13:11:59.820Z,24.2
2018-06-21T13:12:59.797Z,24.2
2018-06-21T13:13:59.381Z,24.4
2018-06-21T13:14:59.958Z,24.4
2018-06-21T13:16:02.566Z,24.4
2018-06-21T13:16:59.409Z,24.0
2018-06-21T13:17:59.901Z,24.0
2018-06-21T13:19:59.351Z,24.0
2018-06-21T13:20:59.672Z,24.0
2018-06-21T13:21:59.654Z,24.1
2018-06-21T13:22:59.586Z,24.1
2018-06-21T13:23:59.590Z,24.4
2018-06-21T13:25:00.040Z,24.4
2018-06-21T13:26:01.750Z,24.4
2018-06-21T13:26:59.369Z,24.2
2018-06-21T13:27:59.434Z,24.2
2018-06-21T13:28:59.533Z,24.2
2018-06-21T13:29:59.829Z,24.2
2018-06-21T13:30:59.396Z,24.2
2018-06-21T13:31:59.848Z,24.0
2018-06-21T13:33:00.086Z,24.0
2018-06-21T13:33:59.553Z,23.8
2018-06-21T13:34:59.811Z,23.8
2018-06-21T13:35:59.424Z,23.8
2018-06-21T13:37:00.092Z,24.1
2018-06-21T13:37:59.945Z,24.1
2018-06-21T13:38:59.375Z,24.1
2018-06-21T13:39:59.820Z,23.9
2018-06-21T13:40:59.936Z,23.9
2018-06-21T13:41:59.624Z,23.8
2018-06-21T13:42:59.942Z,23.8
2018-06-21T13:43:59.863Z,23.8
2018-06-21T13:44:59.823Z,23.9
2018-06-21T13:45:59.978Z,23.9
2018-06-21T13:46:59.941Z,24.0
2018-06-21T13:47:59.654Z,24.0
2018-06-21T13:48:59.443Z,24.0
2018-06-21T13:49:59.938Z,24.1
2018-06-21T13:50:59.985Z,24.1
2018-06-21T13:51:59.425Z,24.2
2018-06-21T13:52:59.469Z,24.2
2018-06-21T13:53:59.416Z,24.2
2018-06-21T13:54:59.882Z,24.2
2018-06-21T13:55:59.591Z,24.2
2018-06-21T13:56:59.852Z,24.1
2018-06-21T13:58:00.015Z,24.1
2018-06-21T13:58:59.969Z,24.1
2018-06-21T13:59:59.873Z,24.1
2018-06-21T14:00:59.448Z,24.1
2018-06-21T14:01:59.825Z,23.7
2018-06-21T14:02:59.676Z,23.7
2018-06-21T14:03:59.627Z,23.7
2018-06-21T14:04:59.462Z,24.0
2018-06-21T14:05:59.912Z,24.0
2018-06-21T14:06:59.988Z,24.0
2018-06-21T14:08:00.021Z,23.4
2018-06-21T14:08:59.969Z,23.4